Time;durP1;ratioP1;P1;durP2;ratioP2;P2;SDS_P1;SDS_P2;PMS_P1;PMS_P2;Temp;Humidity;BMP_temperature;BMP_pressure;BME280_temperature;BME280_humidity;BME280_pressure;Samples;Min_cycle;Max_cycle;Signal;HPM_P1;HPM_P2
2020/12/25 00:02:22;;;;;;;4.25;2.72;;;;;;;0.79;86.39;99510.02;1810095;79;21113;-65
2020/12/25 00:04:50;;;;;;;4.58;2.95;;;;;;;0.81;86.40;99502.50;1817705;79;21101;-65
2020/12/25 00:07:17;;;;;;;4.97;2.60;;;;;;;0.82;86.38;99501.58;1805393;79;21058;-65
2020/12/25 00:09:46;;;;;;;5.42;3.25;;;;;;;0.83;86.40;99501.95;1798214;79;21887;-65
2020/12/25 00:12:14;;;;;;;5.62;2.65;;;;;;;0.86;86.42;99500.94;1798042;79;21078;-66
2020/12/25 00:14:42;;;;;;;3.95;2.42;;;;;;;0.88;86.40;99497.83;1798102;79;21150;-65
2020/12/25 00:17:10;;;;;;;5.25;2.90;;;;;;;0.90;86.42;99497.27;1798142;79;21124;-65
2020/12/25 00:19:38;;;;;;;5.67;3.50;;;;;;;0.92;86.42;99495.88;1798084;79;21085;-65
2020/12/25 00:22:05;;;;;;;4.12;2.83;;;;;;;0.92;86.41;99487.62;1792384;79;24281;-65
2020/12/25 00:24:34;;;;;;;3.77;2.50;;;;;;;0.93;86.41;99487.16;1784765;79;21090;-66
2020/12/25 00:27:02;;;;;;;3.17;2.22;;;;;;;0.94;86.42;99484.47;1783975;80;21453;-65
2020/12/25 00:29:30;;;;;;;3.58;1.98;;;;;;;0.94;86.40;99483.17;1783906;80;21121;-65
2020/12/25 00:31:58;;;;;;;3.87;2.17;;;;;;;0.96;86.43;99471.39;1783857;80;21347;-65
2020/12/25 00:34:26;;;;;;;2.87;1.80;;;;;;;0.98;86.44;99462.61;1783916;80;22075;-65
2020/12/25 00:36:54;;;;;;;3.98;2.10;;;;;;;0.99;86.44;99464.74;1783891;80;21497;-65
2020/12/25 00:39:22;;;;;;;4.37;2.70;;;;;;;0.98;86.44;99458.70;1783799;80;21129;-65
2020/12/25 00:41:51;;;;;;;4.40;2.33;;;;;;;1.00;86.45;99452.95;1753851;80;21045;-65
2020/12/25 00:44:19;;;;;;;3.45;2.22;;;;;;;1.02;86.48;99446.36;1753445;80;21489;-65
2020/12/25 00:46:47;;;;;;;3.25;2.00;;;;;;;1.04;86.47;99439.31;1783845;80;22768;-65
2020/12/25 00:49:16;;;;;;;1.90;1.70;;;;;;;1.04;86.48;99440.14;1783850;80;20950;-66
2020/12/25 00:51:49;;;;;;;3.02;2.00;;;;;;;1.07;86.50;99438.70;1783839;80;21068;-65
2020/12/25 00:54:17;;;;;;;3.37;1.92;;;;;;;1.13;86.52;99440.10;1784016;80;21054;-65
2020/12/25 00:56:48;;;;;;;3.75;1.95;;;;;;;1.16;86.55;99433.45;1809186;79;21169;-65
2020/12/25 00:59:17;;;;;;;2.02;1.70;;;;;;;1.18;86.55;99434.20;1754187;80;22102;-65
2020/12/25 01:01:45;;;;;;;2.92;1.77;;;;;;;1.19;86.54;99428.06;1774439;80;21102;-65
2020/12/25 01:04:15;;;;;;;3.25;1.67;;;;;;;1.23;86.54;99420.92;1789665;80;21074;-65
2020/12/25 01:06:42;;;;;;;2.12;1.60;;;;;;;1.24;86.53;99420.83;1774478;80;21141;-65
2020/12/25 01:09:11;;;;;;;2.30;1.20;;;;;;;1.24;86.53;99419.99;1789792;80;21553;-65
2020/12/25 01:11:41;;;;;;;2.77;1.80;;;;;;;1.25;86.51;99402.16;1789678;80;21884;-65
2020/12/25 01:14:08;;;;;;;4.83;2.25;;;;;;;1.23;86.53;99394.44;1779008;79;21177;-65
2020/12/25 01:16:37;;;;;;;4.95;2.37;;;;;;;1.25;86.50;99373.55;1822107;78;21079;-65
2020/12/25 01:19:04;;;;;;;4.12;2.10;;;;;;;1.26;86.52;99368.74;1821976;78;21157;-65
2020/12/25 01:21:32;;;;;;;4.20;2.77;;;;;;;1.28;86.55;99366.42;1806149;79;21079;-65
2020/12/25 01:24:00;;;;;;;4.08;2.60;;;;;;;1.29;86.56;99368.09;1822153;78;21959;-66
2020/12/25 01:26:28;;;;;;;4.33;1.98;;;;;;;1.32;86.58;99368.37;1822113;78;21482;-65
2020/12/25 01:29:03;;;;;;;2.17;1.47;;;;;;;1.33;86.55;99376.08;1806476;79;21051;-65
2020/12/25 01:31:31;;;;;;;2.20;1.40;;;;;;;1.34;86.56;99373.02;1812575;78;21126;-65
2020/12/25 01:33:59;;;;;;;2.77;2.20;;;;;;;1.37;86.58;99361.16;1795180;80;21485;-65
2020/12/25 01:36:27;;;;;;;2.92;1.95;;;;;;;1.39;86.59;99328.91;1795180;80;22053;-65
2020/12/25 01:38:54;;;;;;;5.80;3.35;;;;;;;1.41;86.65;99316.64;1795099;80;21086;-65
2020/12/25 01:41:22;;;;;;;5.10;2.92;;;;;;;1.45;86.66;99310.81;1795105;80;21110;-65
2020/12/25 01:43:49;;;;;;;4.45;2.40;;;;;;;1.47;86.67;99312.86;1795110;80;21169;-65
